Time;durP1;ratioP1;P1;durP2;ratioP2;P2;SDS_P1;SDS_P2;PMS_P1;PMS_P2;Temp;Humidity;BMP_temperature;BMP_pressure;BME280_temperature;BME280_humidity;BME280_pressure;Samples;Min_cycle;Max_cycle;Signal;HPM_P1;HPM_P2
2022/09/18 00:03:17;;;;;;;4.50;0.80;;;16.30;69.30;;;;;;10462207;28;20075;-43
2022/09/18 00:08:20;;;;;;;3.77;0.90;;;16.00;68.90;;;;;;10455953;28;20446;-39
2022/09/18 00:13:22;;;;;;;13.00;0.88;;;16.00;70.30;;;;;;10458106;28;20044;-42
2022/09/18 00:18:24;;;;;;;4.83;0.90;;;15.70;72.80;;;;;;10461206;28;20049;-38
2022/09/18 00:23:29;;;;;;;3.10;0.70;;;15.60;73.10;;;;;;10460542;28;20106;-43
2022/09/18 00:28:31;;;;;;;6.75;0.73;;;16.60;69.60;;;;;;10456509;28;20110;-36
2022/09/18 00:33:33;;;;;;;5.20;0.80;;;15.40;72.50;;;;;;10454102;28;20089;-36
2022/09/18 00:38:36;;;;;;;10.20;1.70;;;15.60;72.40;;;;;;10458149;28;20499;-40
2022/09/18 00:43:38;;;;;;;4.05;0.75;;;15.60;73.00;;;;;;10457016;28;20041;-39
2022/09/18 00:48:44;;;;;;;8.80;1.37;;;16.40;70.50;;;;;;10457954;28;20136;-38
2022/09/18 00:53:55;;;;;;;5.95;0.82;;;16.30;70.80;;;;;;10452717;28;20080;-40
2022/09/18 00:58:57;;;;;;;9.75;1.02;;;15.60;70.70;;;;;;10452344;28;20079;-38
2022/09/18 01:03:59;;;;;;;5.07;1.10;;;17.00;66.50;;;;;;10461376;28;20128;-39
2022/09/18 01:09:13;;;;;;;9.40;1.80;;;16.50;70.70;;;;;;10462206;28;20495;-40
2022/09/18 01:14:27;;;;;;;10.80;2.20;;;16.50;70.40;;;;;;10470801;28;20463;-39
2022/09/18 01:19:43;;;;;;;5.10;0.80;;;16.70;68.30;;;;;;10463916;28;20547;-40
2022/09/18 01:25:01;;;;;;;11.05;1.20;;;16.20;71.40;;;;;;10467121;28;20080;-38
2022/09/18 01:30:07;;;;;;;9.20;1.50;;;15.40;75.10;;;;;;10464950;28;20110;-42
2022/09/18 01:35:14;;;;;;;7.18;0.77;;;15.70;75.20;;;;;;10466536;28;20041;-42
2022/09/18 01:40:23;;;;;;;10.80;2.58;;;16.40;72.00;;;;;;10468554;28;20149;-38
2022/09/18 01:45:31;;;;;;;3.55;0.80;;;15.80;73.20;;;;;;10465440;28;20107;-38
2022/09/18 01:50:41;;;;;;;5.35;0.75;;;16.60;70.70;;;;;;10455084;28;20402;-43
2022/09/18 01:55:49;;;;;;;6.68;0.85;;;15.60;71.20;;;;;;10477215;28;20109;-41
2022/09/18 02:00:56;;;;;;;10.38;1.02;;;14.90;74.60;;;;;;10462375;28;20084;-41
2022/09/18 02:06:02;;;;;;;4.88;0.73;;;15.50;74.10;;;;;;10466699;28;20486;-35
2022/09/18 02:11:08;;;;;;;2.55;0.43;;;16.50;70.30;;;;;;10468662;28;20041;-39
2022/09/18 02:16:18;;;;;;;4.07;0.65;;;16.70;70.60;;;;;;10476583;28;20464;-35
2022/09/18 02:21:25;;;;;;;4.28;0.60;;;16.10;70.90;;;;;;10470601;28;20076;-40
2022/09/18 02:26:27;;;;;;;8.65;1.00;;;16.00;70.60;;;;;;10480377;28;20235;-36
2022/09/18 02:31:30;;;;;;;5.03;0.90;;;15.20;71.80;;;;;;10491918;28;21064;-42
2022/09/18 02:36:45;;;;;;;4.25;0.63;;;15.80;71.90;;;;;;10492024;28;20130;-40
2022/09/18 02:41:56;;;;;;;4.82;0.50;;;15.70;70.30;;;;;;10468391;28;20140;-41
2022/09/18 02:47:07;;;;;;;3.47;0.82;;;16.20;67.50;;;;;;10490460;28;20045;-41
2022/09/18 02:52:15;;;;;;;4.53;0.80;;;16.20;69.30;;;;;;10463812;28;20114;-37
2022/09/18 02:57:23;;;;;;;5.20;0.98;;;15.80;69.40;;;;;;10472716;28;20060;-39
2022/09/18 03:02:27;;;;;;;10.02;0.77;;;15.60;71.40;;;;;;10472856;28;20453;-39
2022/09/18 03:07:28;;;;;;;5.20;0.63;;;15.50;71.00;;;;;;10463009;28;20044;-41
2022/09/18 03:12:30;;;;;;;6.30;0.83;;;15.70;70.60;;;;;;10489851;28;20131;-42
2022/09/18 03:17:34;;;;;;;6.53;0.80;;;16.00;71.10;;;;;;10482209;28;20060;-41
2022/09/18 03:22:35;;;;;;;8.18;0.85;;;17.30;66.80;;;;;;10502882;28;20513;-33
2022/09/18 03:27:37;;;;;;;4.77;0.90;;;16.40;70.10;;;;;;10471645;28;20059;-43
2022/09/18 03:32:41;;;;;;;7.88;0.93;;;18.30;63.70;;;;;;10496300;28;20056;-39
2022/09/18 03:37:42;;;;;;;9.77;0.77;;;17.20;67.40;;;;;;10476642;28;20147;-42
2022/09/18 03:42:45;;;;;;;8.30;0.87;;;16.50;69.50;;;;;;10463284;28;20049;-41
2022/09/18 03:47:48;;;;;;;2.35;0.82;;;16.10;69.70;;;;;;10478280;28;20041;-43
2022/09/18 03:52:50;;;;;;;3.00;0.70;;;15.80;69.20;;;;;;10468865;28;20459;-41
2022/09/18 03:57:53;;;;;;;8.07;1.60;;;15.50;67.70;;;;;;10475175;28;20540;-40
2022/09/18 04:02:56;;;;;;;6.90;0.73;;;16.10;68.20;;;;;;10457981;28;20076;-38
2022/09/18 04:07:58;;;;;;;10.95;1.73;;;16.60;66.30;;;;;;10456208;28;20574;-43
2022/09/18 04:13:00;;;;;;;3.83;0.67;;;16.30;70.10;;;;;;10462986;28;20052;-42
2022/09/18 04:18:03;;;;;;;7.20;1.00;;;17.00;67.30;;;;;;10484198;28;20057;-42
2022/09/18 04:23:05;;;;;;;10.65;0.93;;;16.90;69.00;;;;;;10458694;28;20045;-37
2022/09/18 04:28:07;;;;;;;1.45;0.82;;;17.40;67.20;;;;;;10454374;28;20061;-31
2022/09/18 04:33:10;;;;;;;2.60;0.73;;;15.90;70.80;;;;;;10472412;28;20495;-40
2022/09/18 04:38:12;;;;;;;2.13;0.70;;;16.30;67.10;;;;;;10484813;28;20626;-42
2022/09/18 04:43:14;;;;;;;5.70;0.80;;;16.10;70.20;;;;;;10481679;28;20115;-42
2022/09/18 04:48:18;;;;;;;8.37;0.70;;;16.20;66.60;;;;;;10466189;28;20083;-42
2022/09/18 04:53:20;;;;;;;4.93;0.82;;;15.90;67.70;;;;;;10481990;28;20105;-42
2022/09/18 04:58:22;;;;;;;3.80;0.60;;;15.90;68.20;;;;;;10469358;28;20131;-40
2022/09/18 05:03:25;;;;;;;3.97;0.60;;;15.70;69.40;;;;;;10464884;28;20114;-43
2022/09/18 05:08:28;;;;;;;9.93;1.70;;;16.20;68.30;;;;;;10467026;28;20135;-38
2022/09/18 05:13:30;;;;;;;10.43;1.17;;;15.90;70.00;;;;;;10483129;28;20075;-40
2022/09/18 05:18:33;;;;;;;6.13;1.10;;;15.10;76.20;;;;;;10487435;28;20130;-41
2022/09/18 05:23:36;;;;;;;9.65;0.93;;;14.60;77.90;;;;;;10469097;28;20133;-38
2022/09/18 05:28:38;;;;;;;4.38;0.50;;;14.90;75.30;;;;;;10462459;28;20045;-41
2022/09/18 05:33:41;;;;;;;4.78;0.55;;;14.90;75.10;;;;;;10487625;28;20052;-42
2022/09/18 05:38:44;;;;;;;2.58;0.40;;;14.80;72.40;;;;;;10491611;28;20052;-42
2022/09/18 05:43:46;;;;;;;4.53;0.47;;;15.90;70.80;;;;;;10462525;28;20103;-40
2022/09/18 05:48:49;;;;;;;8.43;2.57;;;15.40;71.30;;;;;;10481085;28;20143;-40
2022/09/18 05:53:51;;;;;;;6.15;0.50;;;15.60;70.20;;;;;;10456752;28;20461;-38
2022/09/18 05:58:53;;;;;;;5.60;0.53;;;14.90;73.00;;;;;;10454449;28;20057;-41
2022/09/18 06:03:58;;;;;;;11.83;1.10;;;15.80;70.80;;;;;;10486674;28;20488;-39
2022/09/18 06:09:00;;;;;;;8.90;0.75;;;15.30;71.80;;;;;;10462282;28;20508;-41
2022/09/18 06:14:02;;;;;;;3.05;0.50;;;14.90;73.90;;;;;;10478326;28;20079;-38
2022/09/18 06:19:05;;;;;;;5.07;1.00;;;15.60;70.50;;;;;;10470617;28;20445;-43
2022/09/18 06:24:07;;;;;;;5.13;0.70;;;15.30;70.70;;;;;;10476620;28;20386;-38
2022/09/18 06:29:09;;;;;;;4.82;1.05;;;15.20;73.30;;;;;;10469427;28;20052;-41
2022/09/18 06:34:12;;;;;;;7.73;1.27;;;16.70;69.90;;;;;;10483720;28;20048;-36
2022/09/18 06:39:14;;;;;;;13.27;1.33;;;14.90;72.10;;;;;;10475627;28;20143;-42
2022/09/18 06:44:16;;;;;;;9.33;1.07;;;15.30;72.50;;;;;;10473312;28;20127;-41
2022/09/18 06:49:19;;;;;;;11.67;2.43;;;16.80;71.10;;;;;;10470172;28;20045;-42
2022/09/18 06:54:21;;;;;;;8.38;1.10;;;14.60;71.70;;;;;;10471758;28;20045;-38
2022/09/18 06:59:23;;;;;;;6.63;0.43;;;15.90;74.70;;;;;;10470795;28;20048;-34
2022/09/18 07:04:26;;;;;;;3.60;0.77;;;15.80;69.80;;;;;;10471179;28;20554;-39
2022/09/18 07:09:28;;;;;;;7.30;0.88;;;16.40;69.70;;;;;;10476408;28;20044;-41
2022/09/18 07:14:30;;;;;;;7.77;1.03;;;16.60;68.40;;;;;;10484102;28;20048;-39
2022/09/18 07:19:33;;;;;;;7.80;0.87;;;16.10;70.50;;;;;;10482410;28;20181;-41
2022/09/18 07:24:36;;;;;;;2.33;0.40;;;15.60;72.00;;;;;;10481934;28;20053;-40
2022/09/18 07:29:38;;;;;;;7.28;0.63;;;15.80;70.50;;;;;;10457789;28;20036;-41
2022/09/18 07:34:41;;;;;;;9.02;0.82;;;16.00;69.80;;;;;;10496467;28;20049;-29
2022/09/18 07:39:43;;;;;;;4.78;1.42;;;16.20;70.60;;;;;;10473522;28;20481;-38
2022/09/18 07:44:46;;;;;;;4.93;0.60;;;15.50;72.00;;;;;;10464461;28;20052;-35
2022/09/18 07:49:49;;;;;;;4.05;0.95;;;16.00;69.80;;;;;;10496646;28;20044;-40
2022/09/18 07:54:51;;;;;;;1.80;0.60;;;15.60;70.90;;;;;;10471534;28;20051;-35
2022/09/18 07:59:53;;;;;;;3.60;0.70;;;16.00;71.20;;;;;;10475448;28;20071;-38
2022/09/18 08:04:56;;;;;;;10.15;1.42;;;15.60;73.20;;;;;;10490549;28;20048;-44
2022/09/18 08:09:58;;;;;;;4.80;0.88;;;14.80;79.50;;;;;;10508065;28;20124;-43
2022/09/18 08:15:00;;;;;;;3.17;0.93;;;16.00;73.70;;;;;;10502393;28;20786;-34
2022/09/18 08:20:04;;;;;;;8.03;0.73;;;15.80;72.90;;;;;;10504052;28;20741;-43
2022/09/18 08:25:07;;;;;;;8.52;1.08;;;16.30;72.00;;;;;;10509175;28;20405;-37
2022/09/18 08:30:12;;;;;;;2.70;0.70;;;15.80;74.80;;;;;;10502357;28;20040;-42
2022/09/18 08:35:15;;;;;;;4.60;0.70;;;16.10;72.20;;;;;;10511658;28;20523;-36
2022/09/18 08:40:19;;;;;;;5.97;0.52;;;15.20;73.90;;;;;;10524592;28;20125;-41
2022/09/18 08:45:34;;;;;;;3.53;0.40;;;15.80;72.10;;;;;;10518110;28;20127;-39
2022/09/18 08:50:42;;;;;;;3.25;0.60;;;15.60;71.70;;;;;;10541813;28;20138;-44
2022/09/18 08:55:47;;;;;;;5.82;0.70;;;15.70;73.50;;;;;;10528725;28;20404;-41
2022/09/18 09:00:52;;;;;;;2.63;0.80;;;16.00;73.20;;;;;;10520580;28;20401;-42
2022/09/18 09:05:58;;;;;;;2.35;0.65;;;16.40;71.40;;;;;;10527983;28;20074;-39
2022/09/18 09:11:10;;;;;;;9.40;1.20;;;17.00;70.20;;;;;;10511284;28;20075;-42
2022/09/18 09:16:17;;;;;;;6.88;0.70;;;16.10;73.80;;;;;;10502059;28;20063;-43
2022/09/18 09:21:23;;;;;;;8.85;0.93;;;16.20;71.70;;;;;;10530715;28;20044;-40
2022/09/18 09:26:27;;;;;;;7.65;1.02;;;16.20;72.00;;;;;;10517375;28;20059;-39
2022/09/18 09:31:36;;;;;;;6.55;0.70;;;16.40;71.60;;;;;;10511332;28;20080;-40
2022/09/18 09:36:42;;;;;;;7.05;1.42;;;16.30;70.60;;;;;;10503709;28;20040;-45
2022/09/18 09:41:50;;;;;;;1.60;0.70;;;16.50;68.80;;;;;;10499046;28;20288;-42
2022/09/18 09:47:07;;;;;;;3.67;0.63;;;16.70;69.30;;;;;;10507263;28;20125;-44
2022/09/18 09:52:18;;;;;;;2.75;0.68;;;16.80;68.40;;;;;;10511695;28;20213;-42
2022/09/18 09:57:26;;;;;;;1.75;0.57;;;16.50;69.90;;;;;;10511519;28;20127;-35
2022/09/18 10:02:45;;;;;;;10.30;3.42;;;16.90;69.70;;;;;;10510681;28;20132;-34
2022/09/18 10:07:52;;;;;;;11.60;2.03;;;17.80;69.50;;;;;;10525796;28;20061;-34
2022/09/18 10:13:00;;;;;;;14.30;1.65;;;15.10;82.60;;;;;;10529413;28;20052;-36
2022/09/18 10:18:05;;;;;;;10.35;1.45;;;15.60;80.00;;;;;;10527656;28;20106;-34
2022/09/18 10:23:14;;;;;;;5.78;1.05;;;14.30;86.10;;;;;;10513473;28;20075;-35
2022/09/18 10:28:17;;;;;;;11.07;2.45;;;15.70;81.40;;;;;;10512054;28;20045;-36
2022/09/18 10:33:31;;;;;;;10.38;3.25;;;15.50;82.20;;;;;;10521975;28;20055;-36
2022/09/18 10:38:36;;;;;;;6.30;1.67;;;16.50;76.10;;;;;;10525695;28;20044;-33
2022/09/18 10:43:50;;;;;;;10.00;1.88;;;15.00;81.10;;;;;;10522243;28;20468;-37
2022/09/18 10:48:52;;;;;;;7.03;2.95;;;15.30;79.40;;;;;;10508043;28;20068;-35
2022/09/18 10:54:03;;;;;;;9.65;2.05;;;16.50;74.80;;;;;;10509325;28;20072;-36
2022/09/18 10:59:14;;;;;;;9.75;1.42;;;16.00;78.30;;;;;;10532818;28;20051;-38
2022/09/18 11:04:17;;;;;;;3.85;1.58;;;15.20;82.50;;;;;;10515981;28;20136;-39
2022/09/18 11:09:29;;;;;;;5.32;1.40;;;15.40;81.50;;;;;;10508789;28;20059;-37
2022/09/18 11:14:39;;;;;;;5.72;2.05;;;15.70;79.70;;;;;;10516481;28;20480;-35
2022/09/18 11:19:41;;;;;;;13.27;3.40;;;15.20;83.40;;;;;;10497469;28;20289;-36
2022/09/18 11:24:44;;;;;;;15.50;1.90;;;17.30;71.40;;;;;;10507528;28;20086;-36
2022/09/18 11:29:46;;;;;;;14.20;2.40;;;15.30;83.50;;;;;;10522748;28;20048;-37
2022/09/18 11:34:51;;;;;;;13.73;2.28;;;15.20;80.80;;;;;;10532336;28;20127;-37
2022/09/18 11:40:02;;;;;;;3.08;1.58;;;15.00;82.80;;;;;;10519535;28;20152;-38
2022/09/18 11:45:17;;;;;;;7.13;2.00;;;15.90;79.10;;;;;;10518759;28;20044;-35
2022/09/18 11:50:22;;;;;;;7.95;2.88;;;15.50;80.00;;;;;;10497087;28;20099;-39
2022/09/18 11:55:32;;;;;;;8.98;3.10;;;15.90;78.80;;;;;;10518010;28;20135;-38
2022/09/18 12:00:39;;;;;;;9.93;3.78;;;15.90;76.70;;;;;;10509314;28;20041;-34
2022/09/18 12:05:52;;;;;;;13.80;2.83;;;15.60;80.20;;;;;;10515549;28;20149;-35
2022/09/18 12:11:06;;;;;;;11.25;3.47;;;16.00;77.50;;;;;;10510171;28;20094;-34
2022/09/18 12:16:15;;;;;;;12.00;4.15;;;15.20;82.80;;;;;;10520310;28;20135;-36
2022/09/18 12:21:21;;;;;;;10.02;4.45;;;16.30;76.70;;;;;;10496692;28;20148;-36
2022/09/18 12:26:31;;;;;;;16.77;6.85;;;16.30;74.50;;;;;;10514988;28;20127;-35
2022/09/18 12:31:42;;;;;;;12.45;4.72;;;16.40;74.90;;;;;;10499923;28;20075;-34
2022/09/18 12:37:06;;;;;;;14.13;2.65;;;16.90;74.10;;;;;;10508184;28;20044;-37
2022/09/18 12:42:18;;;;;;;11.43;2.55;;;15.90;79.80;;;;;;10507759;28;20139;-35
2022/09/18 12:47:43;;;;;;;12.32;2.13;;;14.50;88.10;;;;;;10501822;28;20540;-37
2022/09/18 12:52:52;;;;;;;8.40;1.80;;;15.10;83.70;;;;;;10523239;28;20135;-35
2022/09/18 12:58:06;;;;;;;10.73;2.08;;;15.30;82.50;;;;;;10496382;28;20131;-38
2022/09/18 13:03:15;;;;;;;9.95;2.42;;;14.90;83.80;;;;;;10515552;28;20129;-37
2022/09/18 13:08:21;;;;;;;9.77;1.73;;;15.00;85.20;;;;;;10502144;28;20068;-38
2022/09/18 13:13:33;;;;;;;14.70;3.17;;;16.00;80.70;;;;;;10509335;28;20040;-37
2022/09/18 13:18:41;;;;;;;8.38;2.10;;;16.50;76.00;;;;;;10515024;28;20047;-35
2022/09/18 13:23:44;;;;;;;8.98;2.47;;;16.60;75.60;;;;;;10506387;28;20055;-36
2022/09/18 13:28:49;;;;;;;;;;;17.10;73.50;;;;;;10516634;28;20048;-37
2022/09/18 13:33:53;;;;;;;12.13;1.83;;;16.80;73.70;;;;;;10507853;28;19950;-36
2022/09/18 13:38:58;;;;;;;5.32;1.52;;;16.10;80.70;;;;;;10518001;28;20531;-35
2022/09/18 13:44:02;;;;;;;5.13;2.10;;;16.20;76.40;;;;;;10525293;28;20072;-36
2022/09/18 13:49:19;;;;;;;9.88;1.77;;;18.10;72.60;;;;;;10534241;28;20432;-37
2022/09/18 13:54:27;;;;;;;4.97;1.95;;;16.30;76.70;;;;;;10521113;28;20083;-37
2022/09/18 13:59:46;;;;;;;11.05;1.75;;;17.40;72.40;;;;;;10527808;28;20063;-36
2022/09/18 14:05:28;;;;;;;6.88;0.95;;;15.70;81.40;;;;;;10550634;28;20099;-36
2022/09/18 14:10:33;;;;;;;7.40;1.30;;;14.90;81.50;;;;;;10524679;28;20040;-39
2022/09/18 14:15:36;;;;;;;8.38;1.73;;;14.80;82.70;;;;;;10521193;28;20127;-39
2022/09/18 14:20:38;;;;;;;6.20;1.30;;;14.60;84.60;;;;;;10524721;28;20051;-41
2022/09/18 14:25:45;;;;;;;14.75;1.95;;;15.00;81.80;;;;;;10530129;28;20887;-38
2022/09/18 14:31:11;;;;;;;11.52;2.03;;;14.30;86.70;;;;;;10514229;28;20850;-39
2022/09/18 14:36:13;;;;;;;11.85;1.52;;;14.50;89.30;;;;;;10526053;28;20048;-38
2022/09/18 14:41:21;;;;;;;16.03;3.03;;;15.20;85.20;;;;;;10535970;28;20078;-37
2022/09/18 14:46:25;;;;;;;9.98;1.50;;;15.10;86.60;;;;;;10527455;28;20049;-36
2022/09/18 14:51:29;;;;;;;9.60;1.63;;;15.10;83.50;;;;;;10522606;28;20071;-38
2022/09/18 14:56:34;;;;;;;8.00;1.25;;;15.30;82.60;;;;;;10530243;28;20561;-36
2022/09/18 15:01:40;;;;;;;7.90;1.30;;;14.80;85.90;;;;;;10512560;28;20087;-36
2022/09/18 15:06:46;;;;;;;6.05;1.17;;;14.40;88.30;;;;;;10525983;28;20048;-45
2022/09/18 15:11:48;;;;;;;9.13;1.20;;;14.70;85.50;;;;;;10517004;28;20064;-46
2022/09/18 15:16:58;;;;;;;3.85;1.10;;;14.90;84.80;;;;;;10513191;28;20126;-44
2022/09/18 15:22:01;;;;;;;6.53;0.75;;;15.70;81.00;;;;;;10521536;28;20055;-46
2022/09/18 15:27:05;;;;;;;5.38;0.80;;;14.90;85.30;;;;;;10504171;28;20060;-44
2022/09/18 15:32:08;;;;;;;7.80;0.73;;;15.30;83.30;;;;;;10501041;28;20040;-46
2022/09/18 15:37:18;;;;;;;3.70;0.52;;;16.30;79.00;;;;;;10512020;28;20129;-38
2022/09/18 15:42:27;;;;;;;7.15;1.05;;;16.70;75.30;;;;;;10500505;28;20558;-37
2022/09/18 15:47:33;;;;;;;3.45;1.33;;;17.30;73.10;;;;;;10514511;28;20118;-38
2022/09/18 15:52:36;;;;;;;7.07;1.20;;;17.30;73.70;;;;;;10495362;28;20475;-36
2022/09/18 15:57:47;;;;;;;8.40;2.22;;;16.60;75.40;;;;;;10502843;28;20049;-37
2022/09/18 16:02:53;;;;;;;10.55;1.20;;;14.90;85.50;;;;;;10506934;28;20064;-39
2022/09/18 16:07:57;;;;;;;1.65;0.88;;;14.60;84.00;;;;;;10497307;28;20052;-34
2022/09/18 16:13:00;;;;;;;7.63;1.15;;;15.90;79.50;;;;;;10505859;28;20164;-36
2022/09/18 16:18:19;;;;;;;3.50;1.00;;;15.80;78.00;;;;;;10514128;28;20101;-34
2022/09/18 16:23:24;;;;;;;9.35;1.90;;;16.10;76.80;;;;;;10500459;28;20143;-38
2022/09/18 16:28:27;;;;;;;11.68;2.97;;;17.10;74.10;;;;;;10499009;28;20102;-38
2022/09/18 16:33:32;;;;;;;5.97;1.52;;;16.60;77.90;;;;;;10506398;28;20154;-37
2022/09/18 16:38:35;;;;;;;20.70;3.88;;;15.30;80.30;;;;;;10504107;28;20044;-37
2022/09/18 16:43:36;;;;;;;19.42;2.72;;;16.80;77.90;;;;;;10511611;28;20413;-38
2022/09/18 16:48:40;;;;;;;11.50;2.33;;;16.40;78.00;;;;;;10517543;28;20135;-38
2022/09/18 16:53:42;;;;;;;7.53;2.30;;;17.10;72.30;;;;;;10505691;28;20229;-37
2022/09/18 16:58:44;;;;;;;18.07;2.63;;;16.20;77.10;;;;;;10526466;28;20550;-39
2022/09/18 17:03:48;;;;;;;;;;;16.10;78.40;;;;;;10507754;28;20382;-37
2022/09/18 17:08:49;;;;;;;;;;;15.00;76.90;;;;;;10510743;28;20019;-36
2022/09/18 17:13:51;;;;;;;7.30;2.17;;;15.30;79.60;;;;;;10522744;28;19959;-37
2022/09/18 17:18:55;;;;;;;9.20;1.43;;;15.60;78.00;;;;;;10511902;28;20131;-39
2022/09/18 17:24:00;;;;;;;11.30;1.80;;;14.60;81.50;;;;;;10521510;28;20109;-39
2022/09/18 17:29:02;;;;;;;9.45;1.70;;;14.50;83.20;;;;;;10526646;28;20044;-36
2022/09/18 17:34:06;;;;;;;10.33;2.17;;;14.00;85.70;;;;;;10512911;28;20053;-38
2022/09/18 17:39:08;;;;;;;15.27;2.88;;;14.50;84.40;;;;;;10521447;28;20099;-36
2022/09/18 17:44:10;;;;;;;8.75;2.15;;;14.20;87.20;;;;;;10503399;28;20090;-38
2022/09/18 17:49:13;;;;;;;16.98;3.30;;;14.00;86.80;;;;;;10511428;28;20138;-38
2022/09/18 17:54:15;;;;;;;11.60;2.28;;;15.60;79.20;;;;;;10506971;28;20464;-36
2022/09/18 17:59:17;;;;;;;;;;;16.10;75.10;;;;;;10491597;28;20127;-38
2022/09/18 18:04:21;;;;;;;16.10;3.72;;;16.00;75.90;;;;;;10520228;28;19970;-39
2022/09/18 18:09:23;;;;;;;15.05;2.47;;;16.50;74.40;;;;;;10526993;28;20052;-38
2022/09/18 18:14:24;;;;;;;7.20;2.30;;;15.10;79.00;;;;;;10511491;28;20044;-38
2022/09/18 18:19:28;;;;;;;8.37;2.90;;;15.00;78.80;;;;;;10472459;28;20477;-40
2022/09/18 18:24:30;;;;;;;10.63;3.58;;;15.00;78.40;;;;;;10471975;28;20053;-40
2022/09/18 18:29:32;;;;;;;7.10;2.30;;;16.30;73.60;;;;;;10480318;28;20050;-39
2022/09/18 18:34:35;;;;;;;11.43;2.37;;;15.50;74.60;;;;;;10476786;28;20044;-39
2022/09/18 18:39:37;;;;;;;12.00;2.42;;;17.10;70.30;;;;;;10483832;28;20497;-38
2022/09/18 18:44:40;;;;;;;8.90;2.83;;;16.20;71.70;;;;;;10482419;28;20072;-38
2022/09/18 18:49:43;;;;;;;8.77;2.03;;;16.70;74.10;;;;;;10478499;28;20040;-37
2022/09/18 18:54:45;;;;;;;8.73;1.95;;;16.30;75.60;;;;;;10474245;28;20139;-40
2022/09/18 18:59:47;;;;;;;7.30;1.67;;;17.10;71.50;;;;;;10463417;28;20049;-39
2022/09/18 19:04:53;;;;;;;4.87;1.13;;;17.70;68.90;;;;;;10474220;28;20048;-39
2022/09/18 19:09:55;;;;;;;12.73;1.48;;;16.40;74.60;;;;;;10485271;28;20060;-38
2022/09/18 19:14:57;;;;;;;7.23;1.13;;;16.70;72.70;;;;;;10472296;28;20131;-40
2022/09/18 19:20:00;;;;;;;9.83;1.53;;;16.70;68.40;;;;;;10512671;28;20492;-39
2022/09/18 19:25:05;;;;;;;3.33;1.15;;;16.70;66.20;;;;;;10516160;28;20040;-37
2022/09/18 19:30:07;;;;;;;9.98;1.77;;;17.00;72.40;;;;;;10522712;28;20040;-39
2022/09/18 19:35:10;;;;;;;;;;;17.00;70.30;;;;;;10510383;28;20058;-38
2022/09/18 19:40:16;;;;;;;;;;;16.30;68.80;;;;;;10507245;28;19924;-38
2022/09/18 19:45:21;;;;;;;8.13;1.50;;;15.60;75.60;;;;;;10504384;28;19919;-37
2022/09/18 19:50:28;;;;;;;8.65;1.85;;;16.40;71.70;;;;;;10522127;28;20055;-38
2022/09/18 19:55:30;;;;;;;6.40;2.08;;;17.90;68.20;;;;;;10511014;28;20041;-38
2022/09/18 20:00:32;;;;;;;9.70;2.35;;;17.00;70.30;;;;;;10526677;28;20043;-37
2022/09/18 20:05:38;;;;;;;11.67;2.00;;;16.80;67.80;;;;;;10520558;28;20079;-40
2022/09/18 20:10:40;;;;;;;11.20;1.40;;;16.50;71.90;;;;;;10515416;28;20839;-37
2022/09/18 20:15:44;;;;;;;6.50;1.23;;;16.30;68.20;;;;;;10502516;28;20052;-39
2022/09/18 20:20:49;;;;;;;16.90;2.25;;;15.80;67.50;;;;;;10530251;28;20083;-39
2022/09/18 20:25:51;;;;;;;7.30;1.23;;;15.10;71.50;;;;;;10522246;28;20048;-38
2022/09/18 20:30:53;;;;;;;23.65;2.58;;;15.90;76.00;;;;;;10518899;28;20059;-37
2022/09/18 20:35:57;;;;;;;15.03;2.07;;;15.40;76.00;;;;;;10505666;28;20056;-40
2022/09/18 20:41:01;;;;;;;10.25;1.52;;;15.30;71.70;;;;;;10512138;28;20087;-38
2022/09/18 20:46:07;;;;;;;11.73;2.72;;;16.80;69.80;;;;;;10504175;28;20048;-39
2022/09/18 20:51:13;;;;;;;8.90;1.67;;;16.50;64.60;;;;;;10498359;28;20044;-39
2022/09/18 20:56:19;;;;;;;7.25;1.48;;;16.40;65.90;;;;;;10509784;28;20135;-38
2022/09/18 21:01:24;;;;;;;5.65;1.80;;;15.80;66.50;;;;;;10512148;28;20468;-41
2022/09/18 21:06:30;;;;;;;8.27;1.35;;;16.50;71.30;;;;;;10510359;28;20395;-39
2022/09/18 21:11:36;;;;;;;9.95;1.92;;;17.90;66.20;;;;;;10525772;28;20044;-40
2022/09/18 21:16:41;;;;;;;9.23;2.13;;;17.40;61.90;;;;;;10523135;28;20068;-40
2022/09/18 21:21:45;;;;;;;12.65;1.75;;;17.50;68.50;;;;;;10520885;28;20059;-39
2022/09/18 21:26:49;;;;;;;8.82;1.42;;;17.30;69.30;;;;;;10500228;28;20074;-37
2022/09/18 21:31:52;;;;;;;9.70;1.85;;;15.80;72.10;;;;;;10507559;28;20618;-39
2022/09/18 21:36:57;;;;;;;8.63;1.67;;;17.10;69.70;;;;;;10510781;28;20487;-39
2022/09/18 21:42:01;;;;;;;11.40;1.38;;;16.30;68.90;;;;;;10508672;28;20116;-43
2022/09/18 21:47:05;;;;;;;17.17;2.55;;;17.00;65.20;;;;;;10504180;28;20135;-40
2022/09/18 21:52:08;;;;;;;16.55;1.58;;;16.90;66.70;;;;;;10532939;28;20837;-39
2022/09/18 21:57:10;;;;;;;6.47;1.17;;;16.50;64.60;;;;;;10516404;28;20054;-39
2022/09/18 22:02:13;;;;;;;9.50;1.23;;;16.70;70.30;;;;;;10510432;28;20045;-38
2022/09/18 22:07:17;;;;;;;;;;;16.90;65.70;;;;;;10512888;28;20048;-39
2022/09/18 22:12:18;;;;;;;7.30;1.50;;;16.50;68.80;;;;;;10528354;28;19927;-38
2022/09/18 22:17:21;;;;;;;16.77;2.00;;;17.80;62.10;;;;;;10516538;28;20052;-41
2022/09/18 22:22:25;;;;;;;9.13;1.52;;;17.10;64.40;;;;;;10535086;28;20423;-41
2022/09/18 22:27:27;;;;;;;11.25;1.30;;;17.70;64.60;;;;;;10529637;28;20063;-37
2022/09/18 22:32:29;;;;;;;11.32;1.35;;;16.30;67.90;;;;;;10518945;28;20064;-39
2022/09/18 22:37:32;;;;;;;9.77;1.43;;;16.10;70.50;;;;;;10544239;28;20092;-39
2022/09/18 22:42:34;;;;;;;8.10;1.00;;;18.10;65.60;;;;;;10520627;28;20052;-37
2022/09/18 22:47:36;;;;;;;5.80;1.97;;;17.30;67.30;;;;;;10515555;28;20068;-40
2022/09/18 22:52:39;;;;;;;13.23;1.27;;;17.40;66.20;;;;;;10507160;28;20403;-39
2022/09/18 22:57:41;;;;;;;10.18;1.38;;;17.70;59.50;;;;;;10517504;28;20547;-37
2022/09/18 23:02:43;;;;;;;10.53;1.40;;;17.50;63.60;;;;;;10516786;28;20045;-38
2022/09/18 23:07:47;;;;;;;10.75;2.17;;;16.30;64.80;;;;;;10515279;28;20051;-41
2022/09/18 23:12:49;;;;;;;9.07;1.40;;;16.20;66.90;;;;;;10505976;28;20472;-36
2022/09/18 23:17:51;;;;;;;4.87;1.23;;;17.40;66.60;;;;;;10524209;28;20489;-38
2022/09/18 23:22:54;;;;;;;6.17;1.27;;;17.70;65.20;;;;;;10529995;28;20139;-38
2022/09/18 23:27:56;;;;;;;9.18;1.85;;;17.80;65.30;;;;;;10526573;28;20524;-40
2022/09/18 23:33:00;;;;;;;10.93;1.30;;;17.90;66.40;;;;;;10517368;28;20140;-39
2022/09/18 23:38:04;;;;;;;8.23;1.25;;;17.10;68.20;;;;;;10527268;28;20477;-36
2022/09/18 23:43:05;;;;;;;4.03;1.13;;;17.80;66.40;;;;;;10509914;28;20041;-38
2022/09/18 23:48:07;;;;;;;12.60;0.90;;;18.00;65.00;;;;;;10513357;28;20075;-38
2022/09/18 23:53:10;;;;;;;6.90;1.47;;;17.60;65.80;;;;;;10527766;28;20123;-38
2022/09/18 23:58:13;;;;;;;6.57;1.77;;;17.60;65.00;;;;;;10503331;28;20544;-37
